sensor_id;sensor_type;location;lat;lon;timestamp;temperature;humidity
52381;DHT22;38310;52.796;6.942;2022-12-13T00:00:41;-4.90;99.90
52381;DHT22;38310;52.796;6.942;2022-12-13T00:03:07;-4.90;99.90
52381;DHT22;38310;52.796;6.942;2022-12-13T00:05:33;-4.90;99.90
52381;DHT22;38310;52.796;6.942;2022-12-13T00:08:00;-4.90;99.90
52381;DHT22;38310;52.796;6.942;2022-12-13T00:10:26;-4.90;99.90
52381;DHT22;38310;52.796;6.942;2022-12-13T00:12:52;-4.90;99.90
52381;DHT22;38310;52.796;6.942;2022-12-13T00:15:18;-5.00;99.90
52381;DHT22;38310;52.796;6.942;2022-12-13T00:17:44;-4.00;99.90
52381;DHT22;38310;52.796;6.942;2022-12-13T00:20:10;-6.60;99.90
52381;DHT22;38310;52.796;6.942;2022-12-13T00:22:36;-4.90;99.90
52381;DHT22;38310;52.796;6.942;2022-12-13T00:25:02;-4.80;99.90
52381;DHT22;38310;52.796;6.942;2022-12-13T00:27:29;-4.70;99.90
52381;DHT22;38310;52.796;6.942;2022-12-13T00:29:54;-4.80;99.90
52381;DHT22;38310;52.796;6.942;2022-12-13T00:32:20;-4.60;99.90
52381;DHT22;38310;52.796;6.942;2022-12-13T00:34:46;-4.70;99.90
52381;DHT22;38310;52.796;6.942;2022-12-13T00:37:11;-4.70;99.90
52381;DHT22;38310;52.796;6.942;2022-12-13T00:39:37;-4.70;99.90
52381;DHT22;38310;52.796;6.942;2022-12-13T00:42:04;-4.70;99.90
52381;DHT22;38310;52.796;6.942;2022-12-13T00:44:30;-3.00;99.90
52381;DHT22;38310;52.796;6.942;2022-12-13T00:46:55;-4.70;99.90
52381;DHT22;38310;52.796;6.942;2022-12-13T00:49:21;-4.70;99.90
52381;DHT22;38310;52.796;6.942;2022-12-13T00:51:47;-4.60;99.90
52381;DHT22;38310;52.796;6.942;2022-12-13T00:54:14;-4.70;99.90
52381;DHT22;38310;52.796;6.942;2022-12-13T00:56:40;-4.60;99.90
52381;DHT22;38310;52.796;6.942;2022-12-13T00:59:06;-4.60;99.90
52381;DHT22;38310;52.796;6.942;2022-12-13T01:01:34;-4.60;99.90
52381;DHT22;38310;52.796;6.942;2022-12-13T01:04:02;-4.60;99.90
52381;DHT22;38310;52.796;6.942;2022-12-13T01:06:32;-4.60;99.90
52381;DHT22;38310;52.796;6.942;2022-12-13T01:08:59;-4.60;99.90
52381;DHT22;38310;52.796;6.942;2022-12-13T01:11:25;-2.80;99.90
52381;DHT22;38310;52.796;6.942;2022-12-13T01:13:51;-4.50;99.90
52381;DHT22;38310;52.796;6.942;2022-12-13T01:16:17;-2.40;99.90
52381;DHT22;38310;52.796;6.942;2022-12-13T01:18:43;-4.60;99.90
52381;DHT22;38310;52.796;6.942;2022-12-13T01:21:11;-4.60;99.90
52381;DHT22;38310;52.796;6.942;2022-12-13T01:23:38;-4.60;99.90
52381;DHT22;38310;52.796;6.942;2022-12-13T01:26:06;-2.10;99.90
52381;DHT22;38310;52.796;6.942;2022-12-13T01:28:32;-3.50;99.90
52381;DHT22;38310;52.796;6.942;2022-12-13T01:31:03;-4.60;99.90
52381;DHT22;38310;52.796;6.942;2022-12-13T01:33:30;-3.00;99.90
52381;DHT22;38310;52.796;6.942;2022-12-13T01:35:59;-2.20;99.90
52381;DHT22;38310;52.796;6.942;2022-12-13T01:38:24;-4.70;99.90
52381;DHT22;38310;52.796;6.942;2022-12-13T01:40:51;-4.20;99.90
52381;DHT22;38310;52.796;6.942;2022-12-13T01:46:13;-2.90;99.90
52381;DHT22;38310;52.796;6.942;2022-12-13T01:49:07;-4.80;99.90
52381;DHT22;38310;52.796;6.942;2022-12-13T01:51:48;-4.70;99.90
52381;DHT22;38310;52.796;6.942;2022-12-13T01:54:20;-4.80;99.90
52381;DHT22;38310;52.796;6.942;2022-12-13T01:56:50;-4.70;99.90
52381;DHT22;38310;52.796;6.942;2022-12-13T01:59:17;-4.70;99.90
52381;DHT22;38310;52.796;6.942;2022-12-13T02:01:45;-4.70;99.90
52381;DHT22;38310;52.796;6.942;2022-12-13T02:04:11;-2.50;99.90
52381;DHT22;38310;52.796;6.942;2022-12-13T02:06:42;-4.80;99.90
52381;DHT22;38310;52.796;6.942;2022-12-13T02:09:10;-4.90;99.90
52381;DHT22;38310;52.796;6.942;2022-12-13T02:11:38;-5.00;99.90
52381;DHT22;38310;52.796;6.942;2022-12-13T02:14:03;-4.90;99.90
52381;DHT22;38310;52.796;6.942;2022-12-13T02:22:12;-4.60;99.90
52381;DHT22;38310;52.796;6.942;2022-12-13T02:25:02;-5.30;99.90
52381;DHT22;38310;52.796;6.942;2022-12-13T02:30:57;-5.10;99.90
52381;DHT22;38310;52.796;6.942;2022-12-13T02:39:27;-5.30;99.90
52381;DHT22;38310;52.796;6.942;2022-12-13T02:42:00;-5.20;99.90
52381;DHT22;38310;52.796;6.942;2022-12-13T02:44:30;-5.20;99.90
52381;DHT22;38310;52.796;6.942;2022-12-13T02:47:05;-5.10;99.90
52381;DHT22;38310;52.796;6.942;2022-12-13T02:49:36;-5.20;99.90
52381;DHT22;38310;52.796;6.942;2022-12-13T02:52:06;-5.20;99.90
52381;DHT22;38310;52.796;6.942;2022-12-13T02:54:32;-4.90;99.90
52381;DHT22;38310;52.796;6.942;2022-12-13T02:56:59;-5.20;99.90
52381;DHT22;38310;52.796;6.942;2022-12-13T02:59:33;-5.20;99.90
52381;DHT22;38310;52.796;6.942;2022-12-13T03:02:31;-5.40;99.90
52381;DHT22;38310;52.796;6.942;2022-12-13T03:07:54;-5.40;99.90
52381;DHT22;38310;52.796;6.942;2022-12-13T03:10:34;-5.00;99.90
52381;DHT22;38310;52.796;6.942;2022-12-13T03:13:06;-4.30;99.90
52381;DHT22;38310;52.796;6.942;2022-12-13T03:15:59;-5.30;99.90
52381;DHT22;38310;52.796;6.942;2022-12-13T03:18:29;-5.40;99.90
52381;DHT22;38310;52.796;6.942;2022-12-13T03:21:00;-5.40;99.90
52381;DHT22;38310;52.796;6.942;2022-12-13T03:23:26;-5.40;99.90
52381;DHT22;38310;52.796;6.942;2022-12-13T03:25:55;-5.40;99.90
52381;DHT22;38310;52.796;6.942;2022-12-13T03:28:21;-5.40;99.90
52381;DHT22;38310;52.796;6.942;2022-12-13T03:30:47;-4.00;99.90
52381;DHT22;38310;52.796;6.942;2022-12-13T03:33:13;-5.40;99.90
52381;DHT22;38310;52.796;6.942;2022-12-13T03:35:40;-5.30;99.90
52381;DHT22;38310;52.796;6.942;2022-12-13T03:38:07;-5.30;99.90
52381;DHT22;38310;52.796;6.942;2022-12-13T03:40:33;-5.30;99.90
52381;DHT22;38310;52.796;6.942;2022-12-13T03:43:00;-5.30;99.90
52381;DHT22;38310;52.796;6.942;2022-12-13T03:45:26;-5.00;99.90
52381;DHT22;38310;52.796;6.942;2022-12-13T03:47:52;-5.30;99.90
52381;DHT22;38310;52.796;6.942;2022-12-13T03:50:18;-5.30;99.90
52381;DHT22;38310;52.796;6.942;2022-12-13T03:52:44;-5.40;99.90
52381;DHT22;38310;52.796;6.942;2022-12-13T03:55:12;-5.30;99.90
52381;DHT22;38310;52.796;6.942;2022-12-13T03:57:38;-4.00;99.90
52381;DHT22;38310;52.796;6.942;2022-12-13T04:00:04;-3.40;99.90
52381;DHT22;38310;52.796;6.942;2022-12-13T04:02:30;-5.30;99.90
52381;DHT22;38310;52.796;6.942;2022-12-13T04:04:56;-5.30;99.90
52381;DHT22;38310;52.796;6.942;2022-12-13T04:07:21;-5.20;99.90
52381;DHT22;38310;52.796;6.942;2022-12-13T04:09:47;-4.20;99.90
52381;DHT22;38310;52.796;6.942;2022-12-13T04:12:13;-5.20;99.90
52381;DHT22;38310;52.796;6.942;2022-12-13T04:14:57;-5.20;99.90
52381;DHT22;38310;52.796;6.942;2022-12-13T04:17:23;-5.20;99.90
52381;DHT22;38310;52.796;6.942;2022-12-13T04:19:48;-5.20;99.90
52381;DHT22;38310;52.796;6.942;2022-12-13T04:22:14;-5.40;99.90
52381;DHT22;38310;52.796;6.942;2022-12-13T04:24:40;-5.70;99.90
52381;DHT22;38310;52.796;6.942;2022-12-13T04:27:05;-5.20;99.90
52381;DHT22;38310;52.796;6.942;2022-12-13T04:29:31;-4.90;99.90
52381;DHT22;38310;52.796;6.942;2022-12-13T04:31:57;-5.20;99.90
52381;DHT22;38310;52.796;6.942;2022-12-13T04:34:22;-5.20;99.90
52381;DHT22;38310;52.796;6.942;2022-12-13T04:36:48;-5.30;99.90
52381;DHT22;38310;52.796;6.942;2022-12-13T04:39:14;-5.30;99.90
52381;DHT22;38310;52.796;6.942;2022-12-13T04:41:39;-5.30;99.90
52381;DHT22;38310;52.796;6.942;2022-12-13T04:44:06;-5.40;99.90
52381;DHT22;38310;52.796;6.942;2022-12-13T04:46:33;-2.90;99.90
52381;DHT22;38310;52.796;6.942;2022-12-13T04:48:59;-5.40;99.90
52381;DHT22;38310;52.796;6.942;2022-12-13T04:51:25;-5.40;99.90
52381;DHT22;38310;52.796;6.942;2022-12-13T04:53:51;-5.50;99.90
52381;DHT22;38310;52.796;6.942;2022-12-13T04:56:17;-5.60;99.90
52381;DHT22;38310;52.796;6.942;2022-12-13T04:58:43;-5.60;99.90
52381;DHT22;38310;52.796;6.942;2022-12-13T05:01:09;-5.70;99.90
52381;DHT22;38310;52.796;6.942;2022-12-13T05:03:37;-6.70;99.90
52381;DHT22;38310;52.796;6.942;2022-12-13T05:06:08;-3.40;99.90
52381;DHT22;38310;52.796;6.942;2022-12-13T05:08:35;-5.90;99.90
52381;DHT22;38310;52.796;6.942;2022-12-13T05:11:02;-5.90;99.90
52381;DHT22;38310;52.796;6.942;2022-12-13T05:13:28;-6.00;99.90
52381;DHT22;38310;52.796;6.942;2022-12-13T05:15:59;-6.00;99.90
52381;DHT22;38310;52.796;6.942;2022-12-13T05:18:26;-6.00;99.90
52381;DHT22;38310;52.796;6.942;2022-12-13T05:20:52;-6.00;99.90
52381;DHT22;38310;52.796;6.942;2022-12-13T05:23:23;-6.00;99.90
52381;DHT22;38310;52.796;6.942;2022-12-13T05:25:50;-6.20;99.90
52381;DHT22;38310;52.796;6.942;2022-12-13T05:28:16;-6.00;99.90
52381;DHT22;38310;52.796;6.942;2022-12-13T05:30:42;-5.00;99.90
52381;DHT22;38310;52.796;6.942;2022-12-13T05:33:08;-6.00;99.90
52381;DHT22;38310;52.796;6.942;2022-12-13T05:35:35;-6.00;99.90
52381;DHT22;38310;52.796;6.942;2022-12-13T05:38:01;-6.00;99.90
52381;DHT22;38310;52.796;6.942;2022-12-13T05:40:28;-6.00;99.90
52381;DHT22;38310;52.796;6.942;2022-12-13T05:42:55;-5.90;99.90
52381;DHT22;38310;52.796;6.942;2022-12-13T05:45:21;-5.50;99.90
52381;DHT22;38310;52.796;6.942;2022-12-13T05:47:47;-5.90;99.90
52381;DHT22;38310;52.796;6.942;2022-12-13T05:50:15;-5.90;99.90
52381;DHT22;38310;52.796;6.942;2022-12-13T05:52:42;-5.90;99.90
52381;DHT22;38310;52.796;6.942;2022-12-13T05:55:09;-4.20;99.90
52381;DHT22;38310;52.796;6.942;2022-12-13T05:57:35;-5.60;99.90
52381;DHT22;38310;52.796;6.942;2022-12-13T06:00:02;-5.90;99.90
52381;DHT22;38310;52.796;6.942;2022-12-13T06:02:28;-5.90;99.90
52381;DHT22;38310;52.796;6.942;2022-12-13T06:04:53;-6.00;99.90
52381;DHT22;38310;52.796;6.942;2022-12-13T06:07:19;-5.90;99.90
52381;DHT22;38310;52.796;6.942;2022-12-13T06:09:45;-4.40;99.90
52381;DHT22;38310;52.796;6.942;2022-12-13T06:12:11;-5.90;99.90
52381;DHT22;38310;52.796;6.942;2022-12-13T06:14:36;-5.90;99.90
52381;DHT22;38310;52.796;6.942;2022-12-13T06:17:03;-5.80;99.90
52381;DHT22;38310;52.796;6.942;2022-12-13T06:19:28;-5.80;99.90
52381;DHT22;38310;52.796;6.942;2022-12-13T06:21:54;-5.10;99.90
52381;DHT22;38310;52.796;6.942;2022-12-13T06:24:21;-5.70;99.90
52381;DHT22;38310;52.796;6.942;2022-12-13T06:26:49;-5.80;99.90
52381;DHT22;38310;52.796;6.942;2022-12-13T06:29:17;-4.10;99.90
52381;DHT22;38310;52.796;6.942;2022-12-13T06:31:43;-5.80;99.90
52381;DHT22;38310;52.796;6.942;2022-12-13T06:34:09;-5.80;99.90
52381;DHT22;38310;52.796;6.942;2022-12-13T06:36:35;-5.40;99.90
52381;DHT22;38310;52.796;6.942;2022-12-13T06:39:05;-4.00;99.90
52381;DHT22;38310;52.796;6.942;2022-12-13T06:41:32;-5.80;99.90
52381;DHT22;38310;52.796;6.942;2022-12-13T06:43:58;-5.90;99.90
52381;DHT22;38310;52.796;6.942;2022-12-13T06:46:24;-5.90;99.90
52381;DHT22;38310;52.796;6.942;2022-12-13T06:48:50;-4.70;99.90
52381;DHT22;38310;52.796;6.942;2022-12-13T06:51:16;-5.70;99.90
52381;DHT22;38310;52.796;6.942;2022-12-13T06:53:42;-5.80;99.90
52381;DHT22;38310;52.796;6.942;2022-12-13T06:56:12;-5.90;99.90
52381;DHT22;38310;52.796;6.942;2022-12-13T06:58:39;-6.20;99.90
52381;DHT22;38310;52.796;6.942;2022-12-13T07:01:07;-5.90;99.90
52381;DHT22;38310;52.796;6.942;2022-12-13T07:03:34;-5.90;99.90
52381;DHT22;38310;52.796;6.942;2022-12-13T07:06:15;-5.90;99.90
52381;DHT22;38310;52.796;6.942;2022-12-13T07:08:42;-5.80;99.90
52381;DHT22;38310;52.796;6.942;2022-12-13T07:11:16;-5.80;99.90
52381;DHT22;38310;52.796;6.942;2022-12-13T07:13:42;-5.90;99.90
52381;DHT22;38310;52.796;6.942;2022-12-13T07:16:09;-6.00;99.90
52381;DHT22;38310;52.796;6.942;2022-12-13T07:18:34;-6.00;99.90
52381;DHT22;38310;52.796;6.942;2022-12-13T07:21:03;-6.00;99.90
52381;DHT22;38310;52.796;6.942;2022-12-13T07:23:29;-6.00;99.90
52381;DHT22;38310;52.796;6.942;2022-12-13T07:25:55;-6.10;99.90
52381;DHT22;38310;52.796;6.942;2022-12-13T07:28:21;-6.10;99.90
52381;DHT22;38310;52.796;6.942;2022-12-13T07:30:47;-3.40;99.90
52381;DHT22;38310;52.796;6.942;2022-12-13T07:33:13;-6.00;99.90
52381;DHT22;38310;52.796;6.942;2022-12-13T07:35:39;-3.70;99.90
52381;DHT22;38310;52.796;6.942;2022-12-13T07:38:07;-6.10;99.90
52381;DHT22;38310;52.796;6.942;2022-12-13T07:40:34;-6.20;99.90
52381;DHT22;38310;52.796;6.942;2022-12-13T07:43:00;-5.60;99.90
52381;DHT22;38310;52.796;6.942;2022-12-13T07:45:26;-6.10;99.90
52381;DHT22;38310;52.796;6.942;2022-12-13T07:47:51;-4.70;99.90
52381;DHT22;38310;52.796;6.942;2022-12-13T07:50:18;-6.00;99.90
52381;DHT22;38310;52.796;6.942;2022-12-13T07:52:47;-6.10;99.90
52381;DHT22;38310;52.796;6.942;2022-12-13T07:55:13;-6.00;99.90
52381;DHT22;38310;52.796;6.942;2022-12-13T07:57:39;-6.00;99.90
52381;DHT22;38310;52.796;6.942;2022-12-13T08:00:05;-6.00;99.90
52381;DHT22;38310;52.796;6.942;2022-12-13T08:02:31;-5.90;99.90
52381;DHT22;38310;52.796;6.942;2022-12-13T08:04:57;-6.00;99.90
52381;DHT22;38310;52.796;6.942;2022-12-13T08:07:22;-5.90;99.90
52381;DHT22;38310;52.796;6.942;2022-12-13T08:09:48;-6.00;99.90
52381;DHT22;38310;52.796;6.942;2022-12-13T08:12:14;-6.00;99.90
52381;DHT22;38310;52.796;6.942;2022-12-13T08:14:40;-6.00;99.90
52381;DHT22;38310;52.796;6.942;2022-12-13T08:17:05;-5.90;99.90
52381;DHT22;38310;52.796;6.942;2022-12-13T08:19:31;-5.90;99.90
52381;DHT22;38310;52.796;6.942;2022-12-13T08:21:57;-4.90;99.90
52381;DHT22;38310;52.796;6.942;2022-12-13T08:24:24;-5.90;99.90
52381;DHT22;38310;52.796;6.942;2022-12-13T08:26:50;-5.80;99.90
52381;DHT22;38310;52.796;6.942;2022-12-13T08:29:16;-5.80;99.90
52381;DHT22;38310;52.796;6.942;2022-12-13T08:31:42;-5.70;99.90
52381;DHT22;38310;52.796;6.942;2022-12-13T08:34:08;-5.70;99.90
52381;DHT22;38310;52.796;6.942;2022-12-13T08:36:34;-5.70;99.90
52381;DHT22;38310;52.796;6.942;2022-12-13T08:38:59;-5.60;99.90
52381;DHT22;38310;52.796;6.942;2022-12-13T08:41:27;-5.60;99.90
52381;DHT22;38310;52.796;6.942;2022-12-13T08:43:54;-5.50;99.90
52381;DHT22;38310;52.796;6.942;2022-12-13T08:46:20;-5.60;99.90
52381;DHT22;38310;52.796;6.942;2022-12-13T08:48:45;-5.50;99.90
52381;DHT22;38310;52.796;6.942;2022-12-13T08:51:13;-5.50;99.90
52381;DHT22;38310;52.796;6.942;2022-12-13T08:53:42;-5.50;99.90
52381;DHT22;38310;52.796;6.942;2022-12-13T08:56:11;-5.40;99.90
52381;DHT22;38310;52.796;6.942;2022-12-13T08:58:38;-5.50;99.90
52381;DHT22;38310;52.796;6.942;2022-12-13T09:01:08;-5.30;99.90
52381;DHT22;38310;52.796;6.942;2022-12-13T09:03:34;-5.30;99.90
52381;DHT22;38310;52.796;6.942;2022-12-13T09:06:09;-5.30;99.90
52381;DHT22;38310;52.796;6.942;2022-12-13T09:08:36;-4.70;99.90
52381;DHT22;38310;52.796;6.942;2022-12-13T09:11:03;-2.70;99.90
52381;DHT22;38310;52.796;6.942;2022-12-13T09:13:31;-5.00;99.90
52381;DHT22;38310;52.796;6.942;2022-12-13T09:15:58;-4.60;99.90
52381;DHT22;38310;52.796;6.942;2022-12-13T09:18:24;-3.50;99.90
52381;DHT22;38310;52.796;6.942;2022-12-13T09:20:50;-5.00;99.90
52381;DHT22;38310;52.796;6.942;2022-12-13T09:23:16;-4.90;99.90
52381;DHT22;38310;52.796;6.942;2022-12-13T09:25:42;-4.80;99.90
52381;DHT22;38310;52.796;6.942;2022-12-13T09:28:07;-4.70;99.90
52381;DHT22;38310;52.796;6.942;2022-12-13T09:30:35;-3.30;99.90
52381;DHT22;38310;52.796;6.942;2022-12-13T09:33:02;-4.60;99.90
52381;DHT22;38310;52.796;6.942;2022-12-13T09:35:27;-4.00;99.90
52381;DHT22;38310;52.796;6.942;2022-12-13T09:37:54;-4.50;99.90
52381;DHT22;38310;52.796;6.942;2022-12-13T09:40:22;-4.40;99.90
52381;DHT22;38310;52.796;6.942;2022-12-13T09:42:52;-3.90;99.90
52381;DHT22;38310;52.796;6.942;2022-12-13T09:45:19;-4.30;99.90
52381;DHT22;38310;52.796;6.942;2022-12-13T09:47:46;-4.20;99.90
52381;DHT22;38310;52.796;6.942;2022-12-13T09:50:17;-3.50;99.90
52381;DHT22;38310;52.796;6.942;2022-12-13T09:52:44;-4.10;99.90
52381;DHT22;38310;52.796;6.942;2022-12-13T09:55:30;-3.10;99.90
52381;DHT22;38310;52.796;6.942;2022-12-13T09:57:57;-3.90;99.90
52381;DHT22;38310;52.796;6.942;2022-12-13T10:00:31;-3.90;99.90
52381;DHT22;38310;52.796;6.942;2022-12-13T10:02:58;-1.70;99.90
52381;DHT22;38310;52.796;6.942;2022-12-13T10:07:54;-3.70;99.90
52381;DHT22;38310;52.796;6.942;2022-12-13T10:10:22;-3.60;99.90
52381;DHT22;38310;52.796;6.942;2022-12-13T10:12:57;-2.70;99.90
52381;DHT22;38310;52.796;6.942;2022-12-13T10:15:25;-3.40;99.90
52381;DHT22;38310;52.796;6.942;2022-12-13T10:17:52;-3.30;99.90
52381;DHT22;38310;52.796;6.942;2022-12-13T10:20:20;-3.30;99.90
52381;DHT22;38310;52.796;6.942;2022-12-13T10:22:46;-1.70;99.90
52381;DHT22;38310;52.796;6.942;2022-12-13T10:25:13;-3.10;99.90
52381;DHT22;38310;52.796;6.942;2022-12-13T10:27:41;-3.10;99.90
52381;DHT22;38310;52.796;6.942;2022-12-13T10:30:16;-3.00;99.90
52381;DHT22;38310;52.796;6.942;2022-12-13T10:32:58;-2.90;99.90
52381;DHT22;38310;52.796;6.942;2022-12-13T10:35:32;-2.80;99.90
52381;DHT22;38310;52.796;6.942;2022-12-13T10:40:37;-2.70;99.90
52381;DHT22;38310;52.796;6.942;2022-12-13T10:43:20;-2.50;99.90
52381;DHT22;38310;52.796;6.942;2022-12-13T10:53:34;-2.20;99.90
52381;DHT22;38310;52.796;6.942;2022-12-13T10:56:03;-1.90;99.90
52381;DHT22;38310;52.796;6.942;2022-12-13T10:58:40;-1.90;99.90
52381;DHT22;38310;52.796;6.942;2022-12-13T11:01:19;-1.70;99.90
52381;DHT22;38310;52.796;6.942;2022-12-13T11:04:31;-1.60;99.90
52381;DHT22;38310;52.796;6.942;2022-12-13T11:07:30;-1.50;99.90
52381;DHT22;38310;52.796;6.942;2022-12-13T11:09:57;-1.40;99.90
52381;DHT22;38310;52.796;6.942;2022-12-13T11:12:26;-1.30;99.90
52381;DHT22;38310;52.796;6.942;2022-12-13T11:14:56;-1.30;99.90
52381;DHT22;38310;52.796;6.942;2022-12-13T11:17:25;-1.30;99.90
52381;DHT22;38310;52.796;6.942;2022-12-13T11:20:04;-1.30;99.90
52381;DHT22;38310;52.796;6.942;2022-12-13T11:22:35;-1.30;99.90
52381;DHT22;38310;52.796;6.942;2022-12-13T11:36:26;-0.90;99.90
52381;DHT22;38310;52.796;6.942;2022-12-13T11:39:18;-0.70;99.90
52381;DHT22;38310;52.796;6.942;2022-12-13T11:48:24;0.50;99.90
52381;DHT22;38310;52.796;6.942;2022-12-13T11:50:34;1.00;99.90
52381;DHT22;38310;52.796;6.942;2022-12-13T11:56:40;1.90;99.90
52381;DHT22;38310;52.796;6.942;2022-12-13T12:04:38;4.00;99.90
52381;DHT22;38310;52.796;6.942;2022-12-13T12:07:38;3.70;99.90
52381;DHT22;38310;52.796;6.942;2022-12-13T12:10:26;4.70;99.90
52381;DHT22;38310;52.796;6.942;2022-12-13T12:13:26;4.70;99.90
52381;DHT22;38310;52.796;6.942;2022-12-13T12:18:30;4.80;99.90
52381;DHT22;38310;52.796;6.942;2022-12-13T12:21:02;4.60;99.90
52381;DHT22;38310;52.796;6.942;2022-12-13T12:23:47;5.40;99.90
52381;DHT22;38310;52.796;6.942;2022-12-13T12:26:17;6.10;99.90
52381;DHT22;38310;52.796;6.942;2022-12-13T12:32:16;7.10;99.90
52381;DHT22;38310;52.796;6.942;2022-12-13T12:39:42;6.10;99.90
52381;DHT22;38310;52.796;6.942;2022-12-13T12:42:32;6.00;99.90
52381;DHT22;38310;52.796;6.942;2022-12-13T12:48:14;5.00;99.90
52381;DHT22;38310;52.796;6.942;2022-12-13T12:50:49;5.20;99.90
52381;DHT22;38310;52.796;6.942;2022-12-13T12:53:37;5.40;99.90
52381;DHT22;38310;52.796;6.942;2022-12-13T12:58:49;6.50;99.90
52381;DHT22;38310;52.796;6.942;2022-12-13T13:03:48;3.70;99.90
52381;DHT22;38310;52.796;6.942;2022-12-13T13:06:30;4.20;99.90
52381;DHT22;38310;52.796;6.942;2022-12-13T13:09:04;4.40;99.90
52381;DHT22;38310;52.796;6.942;2022-12-13T13:11:37;3.50;99.90
52381;DHT22;38310;52.796;6.942;2022-12-13T13:16:48;4.50;99.90
52381;DHT22;38310;52.796;6.942;2022-12-13T13:24:15;4.50;99.90
52381;DHT22;38310;52.796;6.942;2022-12-13T13:29:36;3.00;99.90
52381;DHT22;38310;52.796;6.942;2022-12-13T13:34:40;2.50;99.90
52381;DHT22;38310;52.796;6.942;2022-12-13T13:42:31;2.30;99.90
52381;DHT22;38310;52.796;6.942;2022-12-13T13:45:01;1.90;99.90
52381;DHT22;38310;52.796;6.942;2022-12-13T13:47:33;2.20;99.90
52381;DHT22;38310;52.796;6.942;2022-12-13T14:01:12;1.00;99.90
52381;DHT22;38310;52.796;6.942;2022-12-13T14:09:57;0.90;99.90
52381;DHT22;38310;52.796;6.942;2022-12-13T14:28:50;0.30;99.90
52381;DHT22;38310;52.796;6.942;2022-12-13T14:31:25;0.30;99.90
52381;DHT22;38310;52.796;6.942;2022-12-13T14:33:55;0.20;99.90
52381;DHT22;38310;52.796;6.942;2022-12-13T14:36:29;0.20;99.90
52381;DHT22;38310;52.796;6.942;2022-12-13T14:39:12;0.10;99.90
52381;DHT22;38310;52.796;6.942;2022-12-13T14:41:46;0.00;99.90
52381;DHT22;38310;52.796;6.942;2022-12-13T14:46:53;-0.10;99.90
52381;DHT22;38310;52.796;6.942;2022-12-13T14:49:20;-0.20;99.90
52381;DHT22;38310;52.796;6.942;2022-12-13T14:51:49;-0.30;99.90
52381;DHT22;38310;52.796;6.942;2022-12-13T14:54:21;-0.30;99.90
52381;DHT22;38310;52.796;6.942;2022-12-13T14:56:55;-0.40;99.90
52381;DHT22;38310;52.796;6.942;2022-12-13T14:59:22;-0.50;99.90
52381;DHT22;38310;52.796;6.942;2022-12-13T15:02:02;-0.60;99.90
52381;DHT22;38310;52.796;6.942;2022-12-13T15:04:31;-0.70;99.90
52381;DHT22;38310;52.796;6.942;2022-12-13T15:09:37;-0.90;99.90
52381;DHT22;38310;52.796;6.942;2022-12-13T15:12:08;-0.70;99.90
52381;DHT22;38310;52.796;6.942;2022-12-13T15:14:36;-1.00;99.90
52381;DHT22;38310;52.796;6.942;2022-12-13T15:17:03;-1.10;99.90
52381;DHT22;38310;52.796;6.942;2022-12-13T15:19:29;-1.10;99.90
52381;DHT22;38310;52.796;6.942;2022-12-13T15:24:30;-1.10;99.90
52381;DHT22;38310;52.796;6.942;2022-12-13T15:26:57;0.80;99.90
52381;DHT22;38310;52.796;6.942;2022-12-13T15:29:26;-1.30;99.90
52381;DHT22;38310;52.796;6.942;2022-12-13T15:31:53;-1.00;99.90
52381;DHT22;38310;52.796;6.942;2022-12-13T15:36:55;-0.30;99.90
52381;DHT22;38310;52.796;6.942;2022-12-13T15:39:23;-1.70;99.90
52381;DHT22;38310;52.796;6.942;2022-12-13T15:41:50;-0.70;99.90
52381;DHT22;38310;52.796;6.942;2022-12-13T15:44:36;-1.80;99.90
52381;DHT22;38310;52.796;6.942;2022-12-13T15:47:10;-1.80;99.90
52381;DHT22;38310;52.796;6.942;2022-12-13T15:54:41;-2.00;99.90
52381;DHT22;38310;52.796;6.942;2022-12-13T15:57:25;-2.10;99.90
52381;DHT22;38310;52.796;6.942;2022-12-13T16:00:06;-2.10;99.90
52381;DHT22;38310;52.796;6.942;2022-12-13T16:02:33;-2.10;99.90
52381;DHT22;38310;52.796;6.942;2022-12-13T16:05:07;-2.30;99.90
52381;DHT22;38310;52.796;6.942;2022-12-13T16:07:34;-2.30;99.90
52381;DHT22;38310;52.796;6.942;2022-12-13T16:10:03;-1.60;99.90
52381;DHT22;38310;52.796;6.942;2022-12-13T16:12:45;-2.30;99.90
52381;DHT22;38310;52.796;6.942;2022-12-13T16:15:19;-1.90;99.90
52381;DHT22;38310;52.796;6.942;2022-12-13T16:17:52;-0.20;99.90
52381;DHT22;38310;52.796;6.942;2022-12-13T16:20:19;-2.60;99.90
52381;DHT22;38310;52.796;6.942;2022-12-13T16:22:46;-1.70;99.90
52381;DHT22;38310;52.796;6.942;2022-12-13T16:25:17;-2.70;99.90
52381;DHT22;38310;52.796;6.942;2022-12-13T16:27:44;-2.70;99.90
52381;DHT22;38310;52.796;6.942;2022-12-13T16:30:14;-2.70;99.90
52381;DHT22;38310;52.796;6.942;2022-12-13T16:32:40;-2.80;99.90
52381;DHT22;38310;52.796;6.942;2022-12-13T16:35:06;-2.80;99.90
52381;DHT22;38310;52.796;6.942;2022-12-13T16:37:32;-2.90;99.90
52381;DHT22;38310;52.796;6.942;2022-12-13T16:39:58;-2.90;99.90
52381;DHT22;38310;52.796;6.942;2022-12-13T16:42:26;-1.50;99.90
52381;DHT22;38310;52.796;6.942;2022-12-13T16:44:52;-2.90;99.90
52381;DHT22;38310;52.796;6.942;2022-12-13T16:47:18;-1.30;99.90
52381;DHT22;38310;52.796;6.942;2022-12-13T16:49:44;-3.00;99.90
52381;DHT22;38310;52.796;6.942;2022-12-13T16:52:09;-1.10;99.90
52381;DHT22;38310;52.796;6.942;2022-12-13T16:54:35;-3.20;99.90
52381;DHT22;38310;52.796;6.942;2022-12-13T16:57:01;-3.20;99.90
52381;DHT22;38310;52.796;6.942;2022-12-13T16:59:27;-1.40;99.90
52381;DHT22;38310;52.796;6.942;2022-12-13T17:01:53;-3.30;99.90
52381;DHT22;38310;52.796;6.942;2022-12-13T17:04:20;-2.70;99.90
52381;DHT22;38310;52.796;6.942;2022-12-13T17:06:50;-3.30;99.90
52381;DHT22;38310;52.796;6.942;2022-12-13T17:09:17;-3.40;99.90
52381;DHT22;38310;52.796;6.942;2022-12-13T17:11:43;-2.80;99.90
52381;DHT22;38310;52.796;6.942;2022-12-13T17:14:10;-3.40;99.90
52381;DHT22;38310;52.796;6.942;2022-12-13T17:16:35;-3.40;99.90
52381;DHT22;38310;52.796;6.942;2022-12-13T17:19:01;-3.50;99.90
52381;DHT22;38310;52.796;6.942;2022-12-13T17:21:27;-3.50;99.90
52381;DHT22;38310;52.796;6.942;2022-12-13T17:23:58;-1.90;99.90
52381;DHT22;38310;52.796;6.942;2022-12-13T17:26:25;-3.60;99.90
52381;DHT22;38310;52.796;6.942;2022-12-13T17:28:52;-3.70;99.90
52381;DHT22;38310;52.796;6.942;2022-12-13T17:31:18;-3.70;99.90
52381;DHT22;38310;52.796;6.942;2022-12-13T17:33:44;-3.70;99.90
52381;DHT22;38310;52.796;6.942;2022-12-13T17:36:12;-3.70;99.90
52381;DHT22;38310;52.796;6.942;2022-12-13T17:38:43;-3.20;99.90
52381;DHT22;38310;52.796;6.942;2022-12-13T17:41:10;-3.80;99.90
52381;DHT22;38310;52.796;6.942;2022-12-13T17:43:36;-3.00;99.90
52381;DHT22;38310;52.796;6.942;2022-12-13T17:46:08;-3.80;99.90
52381;DHT22;38310;52.796;6.942;2022-12-13T17:48:35;-1.80;99.90
52381;DHT22;38310;52.796;6.942;2022-12-13T17:51:00;-3.90;99.90
52381;DHT22;38310;52.796;6.942;2022-12-13T17:53:26;-3.90;99.90
52381;DHT22;38310;52.796;6.942;2022-12-13T17:56:00;-1.80;99.90
52381;DHT22;38310;52.796;6.942;2022-12-13T17:58:27;-3.90;99.90
52381;DHT22;38310;52.796;6.942;2022-12-13T18:00:54;-3.50;99.90
52381;DHT22;38310;52.796;6.942;2022-12-13T18:03:20;-2.70;99.90
52381;DHT22;38310;52.796;6.942;2022-12-13T18:05:57;-4.00;99.90
52381;DHT22;38310;52.796;6.942;2022-12-13T18:08:23;-4.00;99.90
52381;DHT22;38310;52.796;6.942;2022-12-13T18:10:56;-4.00;99.90